createdAt,value
2022-09-14T00:00:58.530Z,79.7
2022-09-14T00:07:05.403Z,79.8
2022-09-14T00:10:59.653Z,79.9
2022-09-14T00:16:06.116Z,80.0
2022-09-14T00:21:12.461Z,80.1
2022-09-14T00:26:18.837Z,80.2
2022-09-14T00:31:24.831Z,80.3
2022-09-14T00:36:31.977Z,81.1
2022-09-14T00:41:38.369Z,80.5
2022-09-14T00:46:44.856Z,81.4
2022-09-14T00:51:51.116Z,80.8
2022-09-14T00:56:57.511Z,80.9
2022-09-14T01:02:04.166Z,80.9
2022-09-14T01:07:10.389Z,81.0
2022-09-14T01:12:06.893Z,81.0
2022-09-14T01:22:29.758Z,81.4
2022-09-14T01:27:36.191Z,81.6
2022-09-14T01:33:02.714Z,81.8
2022-09-14T01:37:48.969Z,81.8
2022-09-14T01:42:45.326Z,82.0
2022-09-14T01:48:01.722Z,82.1
2022-09-14T01:53:08.134Z,82.1
2022-09-14T01:58:14.502Z,82.3
2022-09-14T02:09:58.999Z,82.6
2022-09-14T02:14:20.339Z,82.5
2022-09-14T02:35:37.345Z,82.8
2022-09-14T02:37:31.430Z,82.9
2022-09-14T02:41:29.705Z,83.0
2022-09-14T02:50:33.039Z,83.3
2022-09-14T02:50:47.100Z,83.1
2022-09-14T02:56:15.389Z,83.1
2022-09-14T03:00:25.674Z,83.1
2022-09-14T03:18:15.774Z,83.3
2022-09-14T03:21:19.322Z,83.3
2022-09-14T03:21:23.338Z,83.3
2022-09-14T03:28:53.993Z,83.3
2022-09-14T03:36:21.524Z,83.5
2022-09-14T03:38:15.712Z,83.3
2022-09-14T03:51:42.362Z,83.4
2022-09-14T03:57:11.495Z,83.3
2022-09-14T04:02:21.890Z,83.4
2022-09-14T04:13:45.844Z,83.3
2022-09-14T04:22:44.113Z,83.4
2022-09-14T04:24:46.320Z,83.5
2022-09-14T04:28:20.102Z,84.1
2022-09-14T04:33:15.466Z,83.5
2022-09-14T04:38:46.862Z,83.5
2022-09-14T04:43:29.202Z,83.6
2022-09-14T04:48:55.630Z,83.4
2022-09-14T04:53:41.942Z,83.4
2022-09-14T04:58:51.362Z,83.3
2022-09-14T05:03:54.680Z,83.4
2022-09-14T05:09:01.082Z,83.4
2022-09-14T05:14:06.428Z,83.3
2022-09-14T05:19:13.791Z,83.2
2022-09-14T05:27:08.564Z,83.2
2022-09-14T05:29:46.593Z,83.1
2022-09-14T05:34:32.929Z,83.1
2022-09-14T05:39:39.318Z,83.0
2022-09-14T05:45:09.854Z,82.8
2022-09-14T05:49:42.036Z,82.8
2022-09-14T05:54:58.434Z,82.7
2022-09-14T06:00:04.799Z,82.9
2022-09-14T06:05:58.835Z,83.1
2022-09-14T06:16:21.709Z,82.7
2022-09-14T06:21:43.154Z,82.7
2022-09-14T06:26:40.579Z,82.5
2022-09-14T06:31:56.975Z,82.4
2022-09-14T06:37:03.584Z,82.8
2022-09-14T06:42:09.835Z,82.4
2022-09-14T06:52:25.359Z,82.5
2022-09-14T06:57:33.353Z,82.9
2022-09-14T07:02:39.911Z,82.3
2022-09-14T07:09:10.345Z,82.2
2022-09-14T07:13:36.625Z,82.4
2022-09-14T07:17:58.939Z,82.6
2022-09-14T07:28:12.040Z,82.0
2022-09-14T07:33:42.445Z,82.4
2022-09-14T07:38:48.224Z,82.0
2022-09-14T07:48:37.557Z,81.9
2022-09-14T07:55:16.116Z,82.0
2022-09-14T07:58:54.626Z,83.6
2022-09-14T08:03:56.873Z,82.7
2022-09-14T08:09:03.317Z,82.6
2022-09-14T08:14:09.709Z,82.6
2022-09-14T08:19:16.061Z,82.9
2022-09-14T08:24:22.449Z,83.4
2022-09-14T08:29:29.096Z,82.7
2022-09-14T08:34:35.476Z,83.1
2022-09-14T08:39:42.162Z,83.3
2022-09-14T08:49:54.870Z,83.5
2022-09-14T08:55:02.108Z,82.7
2022-09-14T09:00:08.663Z,82.3
2022-09-14T09:05:35.054Z,83.6
2022-09-14T09:10:45.477Z,82.3
2022-09-14T09:16:12.114Z,82.6
2022-09-14T09:20:34.387Z,83.3
2022-09-14T09:25:40.840Z,82.9
2022-09-14T09:30:47.240Z,82.3
2022-09-14T09:41:00.211Z,83.3
2022-09-14T09:46:26.716Z,82.7
2022-09-14T09:51:13.023Z,83.4
2022-09-14T09:56:09.372Z,82.9
2022-09-14T10:02:26.123Z,83.0
2022-09-14T10:06:32.376Z,83.4
2022-09-14T10:11:59.610Z,83.1
2022-09-14T10:21:57.733Z,83.0
2022-09-14T10:32:32.234Z,83.6
2022-09-14T10:33:47.627Z,83.3
2022-09-14T10:38:53.146Z,83.2
2022-09-14T10:45:00.364Z,83.3
2022-09-14T10:50:12.566Z,83.3
2022-09-14T10:54:54.822Z,83.1
2022-09-14T11:00:01.360Z,83.1
2022-09-14T11:08:00.072Z,83.0
2022-09-14T11:10:14.187Z,83.2
2022-09-14T11:15:48.661Z,83.4
2022-09-14T11:20:26.914Z,83.6
2022-09-14T11:35:49.329Z,83.6
2022-09-14T11:40:55.685Z,83.3
2022-09-14T11:46:02.107Z,83.3
2022-09-14T11:56:22.440Z,83.5
2022-09-14T12:01:23.777Z,83.5
2022-09-14T12:07:47.318Z,83.4
2022-09-14T12:11:37.567Z,83.1
2022-09-14T12:16:43.958Z,83.0
2022-09-14T12:21:50.388Z,82.9
2022-09-14T12:26:56.869Z,82.5
2022-09-14T12:32:27.179Z,82.5
2022-09-14T12:37:13.093Z,82.1
2022-09-14T12:47:44.952Z,82.1
2022-09-14T12:52:33.302Z,82.0
2022-09-14T12:58:14.773Z,81.8
2022-09-14T13:03:22.175Z,82.0
2022-09-14T13:08:28.515Z,82.0
2022-09-14T13:13:24.894Z,82.0
2022-09-14T13:18:41.412Z,81.9
2022-09-14T13:23:51.804Z,81.9
2022-09-14T13:28:54.170Z,81.8
2022-09-14T13:39:08.681Z,82.2
2022-09-14T13:44:19.072Z,82.2
2022-09-14T13:54:31.917Z,82.5
2022-09-14T13:59:34.187Z,82.5
2022-09-14T14:04:44.572Z,82.3
2022-09-14T14:09:47.051Z,82.4
2022-09-14T14:14:53.433Z,82.4
2022-09-14T14:19:59.797Z,82.2
2022-09-14T14:25:13.685Z,82.2
2022-09-14T14:30:02.586Z,82.3
2022-09-14T14:35:18.905Z,82.2
2022-09-14T14:40:25.608Z,82.1
2022-09-14T14:45:35.971Z,81.8
2022-09-14T14:51:40.263Z,82.1
2022-09-14T14:55:44.565Z,82.2
2022-09-14T15:00:41.002Z,82.2
2022-09-14T15:05:57.306Z,82.2
2022-09-14T15:11:07.733Z,82.2
2022-09-14T15:27:18.861Z,81.5
2022-09-14T15:32:26.231Z,80.8
2022-09-14T15:37:32.606Z,80.5
2022-09-14T15:42:39.032Z,80.9
2022-09-14T15:47:36.564Z,81.0
2022-09-14T15:53:11.837Z,80.8
2022-09-14T15:57:48.183Z,80.2
2022-09-14T16:03:03.638Z,80.0
2022-09-14T16:18:23.779Z,80.5
2022-09-14T16:23:30.413Z,80.5
2022-09-14T16:28:36.816Z,80.5
2022-09-14T16:33:43.888Z,80.4
2022-09-14T16:39:14.165Z,80.3
2022-09-14T16:43:56.514Z,80.0
2022-09-14T16:49:06.887Z,79.9
2022-09-14T16:54:09.317Z,79.7
2022-09-14T16:59:15.746Z,79.8
2022-09-14T17:04:12.068Z,79.7
2022-09-14T17:09:34.051Z,79.7
2022-09-14T17:14:36.561Z,79.6
2022-09-14T17:20:02.934Z,79.6
2022-09-14T17:24:49.268Z,79.8
2022-09-14T17:30:03.381Z,79.8
2022-09-14T17:35:05.731Z,79.9
2022-09-14T17:40:12.147Z,80.2
2022-09-14T17:45:42.684Z,80.2
2022-09-14T17:55:31.494Z,80.7
2022-09-14T18:00:37.957Z,80.7
2022-09-14T18:05:44.306Z,81.0
2022-09-14T18:10:50.844Z,81.2
2022-09-14T18:26:34.047Z,82.1
2022-09-14T18:31:16.433Z,82.7
2022-09-14T18:36:22.885Z,83.1
2022-09-14T18:46:55.830Z,83.8
2022-09-14T18:51:32.053Z,84.2
2022-09-14T18:57:08.469Z,84.4
2022-09-14T19:01:54.857Z,84.8
2022-09-14T19:07:01.223Z,84.9
2022-09-14T19:12:07.575Z,84.9
2022-09-14T19:17:13.935Z,85.2
2022-09-14T19:22:54.437Z,85.7
2022-09-14T19:28:01.810Z,85.9
2022-09-14T19:32:58.270Z,85.9
2022-09-14T19:38:04.669Z,86.2
2022-09-14T19:43:21.046Z,86.5
2022-09-14T19:48:17.403Z,86.7
2022-09-14T19:53:33.914Z,86.9
2022-09-14T19:59:00.288Z,87.2
2022-09-14T20:09:31.272Z,87.5
2022-09-14T20:14:52.611Z,87.8
2022-09-14T20:19:44.969Z,87.9
2022-09-14T20:24:51.395Z,88.2
2022-09-14T20:30:17.761Z,88.2
2022-09-14T20:35:04.119Z,88.5
2022-09-14T20:40:10.682Z,88.7
2022-09-14T20:45:16.968Z,88.5
2022-09-14T20:50:13.332Z,88.7
2022-09-14T20:56:29.873Z,88.7
2022-09-14T21:00:36.136Z,88.7
2022-09-14T21:05:32.640Z,88.7
2022-09-14T21:12:02.753Z,88.5
2022-09-14T21:15:57.018Z,88.4
2022-09-14T21:21:03.393Z,88.5
2022-09-14T21:26:29.810Z,88.5
2022-09-14T21:31:16.413Z,88.5
2022-09-14T21:36:22.780Z,88.3
2022-09-14T21:41:29.287Z,88.2
2022-09-14T21:46:35.770Z,88.3
2022-09-14T21:51:42.098Z,88.2
2022-09-14T21:56:48.459Z,88.1
2022-09-14T22:01:54.965Z,88.0
2022-09-14T22:07:01.268Z,88.0
2022-09-14T22:11:57.641Z,87.9
2022-09-14T22:22:20.525Z,88.4
2022-09-14T22:32:33.317Z,87.7
2022-09-14T22:37:39.726Z,87.7
2022-09-14T22:42:46.108Z,87.6
2022-09-14T22:47:52.665Z,87.7
2022-09-14T22:58:05.392Z,87.7
2022-09-14T23:03:11.827Z,87.8
2022-09-14T23:08:18.196Z,87.8
2022-09-14T23:13:14.558Z,88.0
2022-09-14T23:18:30.989Z,87.9
2022-09-14T23:23:37.325Z,88.1
2022-09-14T23:28:43.712Z,88.2
2022-09-14T23:33:50.158Z,88.4
2022-09-14T23:38:56.507Z,88.4
2022-09-14T23:44:02.909Z,88.5
2022-09-14T23:48:59.410Z,88.1
2022-09-14T23:54:15.786Z,88.8
2022-09-14T23:59:22.183Z,89.2
